Time;durP1;ratioP1;P1;durP2;ratioP2;P2;SDS_P1;SDS_P2;PMS_P1;PMS_P2;Temp;Humidity;BMP_temperature;BMP_pressure;BME280_temperature;BME280_humidity;BME280_pressure;Samples;Min_cycle;Max_cycle;Signal;HPM_P1;HPM_P2
2022/03/20 00:00:13;;;;;;;42.47;17.25;;;;;;;;;;8322558;28;20046;-84
2022/03/20 00:04:35;;;;;;;42.38;16.42;;;;;;;;;;8312720;28;20045;-83
2022/03/20 00:08:39;;;;;;;37.22;15.45;;;;;;;;;;8321647;28;20044;-86
2022/03/20 00:12:42;;;;;;;41.30;17.45;;;;;;;;;;8307789;28;20042;-86
2022/03/20 00:16:44;;;;;;;43.92;19.88;;;;;;;;;;8305694;28;20309;-93
2022/03/20 00:20:49;;;;;;;39.72;16.23;;;;;;;;;;8306151;28;20049;-89
2022/03/20 00:24:53;;;;;;;36.58;15.75;;;;;;;;;;8306659;28;20053;-87
2022/03/20 00:29:02;;;;;;;40.33;15.48;;;;;;;;;;8329384;28;20046;-84
2022/03/20 00:33:05;;;;;;;37.03;14.65;;;;;;;;;;8333105;28;20050;-83
2022/03/20 00:37:08;;;;;;;29.15;13.00;;;;;;;;;;8332658;28;20046;-82
2022/03/20 00:41:12;;;;;;;27.98;12.20;;;;;;;;;;8329845;28;20034;-82
2022/03/20 00:45:15;;;;;;;32.40;13.25;;;;;;;;;;8318463;28;20053;-84
2022/03/20 00:49:19;;;;;;;33.47;13.23;;;;;;;;;;8315594;28;20069;-84
2022/03/20 00:53:22;;;;;;;30.02;12.98;;;;;;;;;;8314864;28;20046;-85
2022/03/20 01:43:57;;;;;;;34.42;13.98;;;;;;;;;;6908393;22;20057;-87
2022/03/20 01:47:59;;;;;;;32.88;12.95;;;;;;;;;;8343744;28;20037;-89
2022/03/20 01:52:13;;;;;;;29.48;14.60;;;;;;;;;;8343738;28;20045;-82
2022/03/20 01:56:17;;;;;;;27.23;13.73;;;;;;;;;;8341843;28;20042;-88
2022/03/20 02:00:25;;;;;;;30.13;13.07;;;;;;;;;;8341386;28;20053;-84
2022/03/20 02:04:27;;;;;;;35.08;13.18;;;;;;;;;;8340027;28;20050;-85
2022/03/20 02:08:33;;;;;;;31.73;12.63;;;;;;;;;;8343582;28;20052;-92
2022/03/20 02:12:37;;;;;;;29.88;12.45;;;;;;;;;;8343429;28;20517;-83
2022/03/20 02:16:41;;;;;;;30.55;12.85;;;;;;;;;;8343596;28;20057;-83
2022/03/20 02:20:47;;;;;;;33.53;13.52;;;;;;;;;;8343634;28;20049;-89
2022/03/20 02:24:51;;;;;;;36.78;14.85;;;;;;;;;;8341155;28;20102;-82
2022/03/20 02:28:54;;;;;;;29.55;13.57;;;;;;;;;;8341163;28;20049;-93
2022/03/20 02:32:58;;;;;;;34.97;13.32;;;;;;;;;;8341709;28;20478;-85
2022/03/20 02:37:02;;;;;;;36.30;13.07;;;;;;;;;;8341223;28;20119;-82
2022/03/20 02:41:14;;;;;;;35.55;13.85;;;;;;;;;;8340076;28;20076;-87
2022/03/20 02:45:19;;;;;;;;;;;;;;;;;;8339854;28;20054;-89
2022/03/20 02:49:22;;;;;;;25.85;11.45;;;;;;;;;;8340722;28;19921;-87
2022/03/20 02:53:26;;;;;;;28.52;12.73;;;;;;;;;;8342867;28;20053;-89
2022/03/20 02:57:34;;;;;;;33.72;13.02;;;;;;;;;;8343891;28;20070;-93
2022/03/20 03:01:37;;;;;;;33.72;12.52;;;;;;;;;;8341107;28;20049;-89
2022/03/20 03:05:41;;;;;;;31.67;12.95;;;;;;;;;;8340248;28;20049;-87
2022/03/20 03:18:26;;;;;;;32.83;14.20;;;;;;;;;;8338001;28;20049;-86
2022/03/20 03:22:29;;;;;;;25.00;11.85;;;;;;;;;;8339840;28;20049;-92
2022/03/20 03:26:33;;;;;;;27.38;12.40;;;;;;;;;;8338964;28;20068;-83
2022/03/20 03:30:38;;;;;;;25.80;12.30;;;;;;;;;;8340538;28;20095;-83
2022/03/20 03:39:02;;;;;;;32.88;12.30;;;;;;;;;;8340029;28;20045;-91
2022/03/20 03:43:06;;;;;;;34.40;12.98;;;;;;;;;;8339782;28;20061;-91
2022/03/20 03:47:10;;;;;;;32.03;12.52;;;;;;;;;;8338704;28;20116;-88
2022/03/20 03:51:13;;;;;;;28.85;11.70;;;;;;;;;;8338235;28;20049;-83
2022/03/20 03:55:18;;;;;;;31.15;13.32;;;;;;;;;;8338471;28;20050;-91
2022/03/20 03:59:23;;;;;;;30.73;12.90;;;;;;;;;;8337646;28;20077;-92
2022/03/20 04:03:29;;;;;;;25.60;11.98;;;;;;;;;;8334337;28;20157;-92
2022/03/20 04:07:33;;;;;;;24.25;11.70;;;;;;;;;;8307269;28;20049;-85
2022/03/20 04:11:39;;;;;;;28.00;11.75;;;;;;;;;;8306022;28;20049;-87
2022/03/20 04:15:44;;;;;;;21.30;11.02;;;;;;;;;;8305651;28;20100;-92
2022/03/20 04:19:51;;;;;;;36.33;12.73;;;;;;;;;;8304929;28;20046;-85
2022/03/20 04:24:01;;;;;;;34.83;11.63;;;;;;;;;;8304698;28;20485;-89
2022/03/20 04:28:05;;;;;;;27.52;13.02;;;;;;;;;;8305086;28;20141;-86
2022/03/20 04:32:14;;;;;;;28.60;12.68;;;;;;;;;;8305715;28;20195;-84
2022/03/20 04:36:24;;;;;;;29.73;11.13;;;;;;;;;;8315986;28;20103;-85
2022/03/20 04:40:29;;;;;;;31.33;11.95;;;;;;;;;;8322655;28;20046;-83
2022/03/20 04:44:32;;;;;;;25.42;10.30;;;;;;;;;;8305397;28;20057;-93
2022/03/20 05:01:49;;;;;;;39.28;14.15;;;;;;;;;;8330407;28;20042;-83
2022/03/20 05:05:52;;;;;;;28.50;13.35;;;;;;;;;;8334020;28;20041;-84
2022/03/20 05:14:29;;;;;;;31.08;13.90;;;;;;;;;;8346179;28;20057;-82
2022/03/20 05:18:33;;;;;;;31.17;13.50;;;;;;;;;;8358835;28;20504;-82
2022/03/20 05:22:54;;;;;;;38.90;15.73;;;;;;;;;;8357497;28;20412;-81
2022/03/20 05:26:58;;;;;;;29.52;12.98;;;;;;;;;;8354436;28;20057;-84
2022/03/20 05:31:02;;;;;;;32.95;15.30;;;;;;;;;;8338883;28;20469;-81
2022/03/20 05:35:05;;;;;;;34.95;14.02;;;;;;;;;;8350037;28;20061;-83
2022/03/20 05:39:09;;;;;;;33.78;13.18;;;;;;;;;;8332092;28;20397;-84
2022/03/20 05:43:18;;;;;;;40.78;14.02;;;;;;;;;;8350722;28;20065;-94
2022/03/20 05:47:22;;;;;;;37.33;15.05;;;;;;;;;;8351546;28;20041;-94
2022/03/20 05:51:25;;;;;;;34.42;14.38;;;;;;;;;;8348319;28;20045;-93
2022/03/20 05:59:53;;;;;;;34.97;15.07;;;;;;;;;;8351692;28;20057;-93
2022/03/20 06:03:56;;;;;;;35.35;15.07;;;;;;;;;;8353855;28;20069;-87
2022/03/20 06:07:59;;;;;;;41.28;17.15;;;;;;;;;;8354956;28;20076;-85
2022/03/20 06:12:02;;;;;;;33.65;14.25;;;;;;;;;;8352779;28;20052;-89
2022/03/20 06:16:08;;;;;;;;;;;;;;;;;;8353407;28;20057;-93
2022/03/20 06:20:12;;;;;;;28.80;13.77;;;;;;;;;;8332844;28;19968;-83
2022/03/20 06:24:15;;;;;;;33.80;13.30;;;;;;;;;;8310816;28;20052;-84
2022/03/20 06:28:18;;;;;;;38.10;15.15;;;;;;;;;;8302816;28;20054;-88
2022/03/20 06:32:27;;;;;;;32.95;14.07;;;;;;;;;;8328888;28;20050;-85
2022/03/20 06:36:41;;;;;;;41.40;16.38;;;;;;;;;;8335424;28;20053;-83
2022/03/20 06:40:57;;;;;;;36.13;16.63;;;;;;;;;;8330098;28;20497;-88
2022/03/20 06:45:15;;;;;;;35.10;14.18;;;;;;;;;;8363522;28;20064;-86
2022/03/20 06:49:34;;;;;;;28.35;13.35;;;;;;;;;;8333791;28;20061;-87
2022/03/20 06:53:50;;;;;;;30.50;13.90;;;;;;;;;;8319837;28;20042;-87
2022/03/20 06:57:58;;;;;;;28.35;13.00;;;;;;;;;;8299489;28;20516;-86
2022/03/20 07:02:19;;;;;;;27.88;13.38;;;;;;;;;;8300347;28;20057;-88
2022/03/20 07:06:36;;;;;;;27.38;12.82;;;;;;;;;;8299456;28;20070;-86
2022/03/20 07:10:52;;;;;;;30.15;15.98;;;;;;;;;;8300750;28;20050;-88
2022/03/20 07:15:07;;;;;;;26.90;12.95;;;;;;;;;;8328783;28;20159;-88
2022/03/20 07:19:31;;;;;;;22.92;12.02;;;;;;;;;;8394611;22;20057;-88
2022/03/20 07:23:39;;;;;;;22.30;11.23;;;;;;;;;;8252789;28;20475;-85
2022/03/20 07:32:15;;;;;;;22.23;11.02;;;;;;;;;;8261424;28;20097;-85
2022/03/20 07:36:26;;;;;;;21.23;11.55;;;;;;;;;;8253832;28;20384;-90
2022/03/20 07:40:42;;;;;;;21.88;11.00;;;;;;;;;;8248754;28;20551;-90
2022/03/20 07:44:53;;;;;;;20.70;10.73;;;;;;;;;;8258696;28;20101;-84
2022/03/20 07:49:04;;;;;;;19.73;9.82;;;;;;;;;;8258299;28;20048;-88
2022/03/20 07:53:21;;;;;;;26.80;10.27;;;;;;;;;;8259479;28;20490;-86
2022/03/20 07:57:57;;;;;;;19.65;10.45;;;;;;;;;;8253157;28;20057;-87
2022/03/20 08:02:12;;;;;;;18.45;9.50;;;;;;;;;;8252009;28;20051;-95
2022/03/20 08:06:25;;;;;;;19.75;9.48;;;;;;;;;;8271255;28;20057;-90
2022/03/20 08:10:49;;;;;;;20.48;10.55;;;;;;;;;;8268013;28;20058;-85
2022/03/20 08:15:40;;;;;;;17.52;9.27;;;;;;;;;;8265535;28;20065;-90
2022/03/20 08:20:06;;;;;;;19.00;10.15;;;;;;;;;;8264977;28;20058;-86
2022/03/20 08:24:46;;;;;;;19.92;9.98;;;;;;;;;;8266929;28;20074;-86
2022/03/20 08:33:57;;;;;;;17.42;9.57;;;;;;;;;;8265291;28;20458;-87
2022/03/20 08:38:21;;;;;;;19.17;10.50;;;;;;;;;;8265523;28;20058;-88
2022/03/20 08:42:39;;;;;;;18.65;10.27;;;;;;;;;;8262734;28;20074;-86
2022/03/20 08:47:13;;;;;;;20.17;10.32;;;;;;;;;;8248303;28;20447;-85
2022/03/20 08:51:59;;;;;;;18.80;10.40;;;;;;;;;;8257851;28;20371;-87
2022/03/20 08:56:42;;;;;;;15.75;8.85;;;;;;;;;;8254184;28;20054;-88
2022/03/20 09:01:01;;;;;;;20.05;8.98;;;;;;;;;;8246025;28;20057;-86
2022/03/20 09:10:16;;;;;;;15.65;8.13;;;;;;;;;;8218045;28;20142;-89
2022/03/20 09:14:46;;;;;;;16.05;7.75;;;;;;;;;;8206130;28;20136;-91
2022/03/20 09:19:10;;;;;;;12.95;7.47;;;;;;;;;;8223071;28;20055;-91
2022/03/20 09:28:14;;;;;;;16.83;10.00;;;;;;;;;;8209877;28;20475;-87
2022/03/20 09:32:39;;;;;;;14.82;7.68;;;;;;;;;;8222377;28;20054;-89
2022/03/20 09:37:10;;;;;;;14.00;7.68;;;;;;;;;;8191080;28;20053;-93
2022/03/20 09:41:26;;;;;;;10.88;6.53;;;;;;;;;;8216474;28;20063;-87
2022/03/20 09:45:44;;;;;;;13.43;7.45;;;;;;;;;;8211135;28;20054;-86
2022/03/20 09:50:03;;;;;;;;;;;;;;;;;;8203297;29;20059;-92
2022/03/20 09:54:22;;;;;;;16.42;7.43;;;;;;;;;;8202578;28;19937;-87
2022/03/20 09:58:41;;;;;;;13.23;7.25;;;;;;;;;;8213202;28;20054;-87
2022/03/20 10:03:38;;;;;;;11.80;7.18;;;;;;;;;;8213710;28;20469;-87
2022/03/20 10:07:53;;;;;;;18.02;8.30;;;;;;;;;;8209626;28;20521;-88
2022/03/20 10:12:08;;;;;;;10.88;6.68;;;;;;;;;;8216300;28;20047;-87
2022/03/20 10:16:26;;;;;;;10.73;6.65;;;;;;;;;;8206718;28;20063;-92
2022/03/20 10:20:55;;;;;;;11.73;6.47;;;;;;;;;;8211508;28;20051;-87
2022/03/20 10:25:24;;;;;;;13.10;7.00;;;;;;;;;;8212081;28;20063;-88
2022/03/20 10:29:52;;;;;;;14.07;7.40;;;;;;;;;;8210943;28;20130;-90
2022/03/20 10:34:11;;;;;;;11.55;6.90;;;;;;;;;;8252280;28;20042;-88
2022/03/20 10:38:41;;;;;;;10.57;6.45;;;;;;;;;;8257133;28;20574;-89
2022/03/20 10:43:14;;;;;;;11.27;6.25;;;;;;;;;;8270461;28;20057;-93
2022/03/20 10:47:20;;;;;;;10.20;5.55;;;;;;;;;;8611923;23;20065;-83
2022/03/20 10:51:37;;;;;;;10.57;5.50;;;;;;;;;;8288656;28;20038;-83
2022/03/20 10:55:42;;;;;;;11.63;6.20;;;;;;;;;;8298589;28;20053;-83
2022/03/20 10:59:58;;;;;;;11.65;5.40;;;;;;;;;;8300133;28;20081;-84
2022/03/20 11:04:02;;;;;;;11.02;5.07;;;;;;;;;;8299489;28;20050;-82
2022/03/20 11:08:06;;;;;;;8.95;5.05;;;;;;;;;;8296749;28;20092;-83
2022/03/20 11:12:16;;;;;;;8.93;4.78;;;;;;;;;;8277341;28;20047;-86
2022/03/20 11:16:22;;;;;;;8.23;4.68;;;;;;;;;;8269212;28;20042;-84
2022/03/20 11:20:27;;;;;;;9.75;5.60;;;;;;;;;;8272049;28;20054;-84
2022/03/20 11:24:32;;;;;;;7.60;4.50;;;;;;;;;;8298121;28;20052;-83
2022/03/20 11:28:45;;;;;;;13.55;7.68;;;;;;;;;;8299379;28;20128;-83
2022/03/20 11:32:50;;;;;;;10.32;6.00;;;;;;;;;;8296193;28;20054;-82
2022/03/20 11:37:08;;;;;;;11.07;5.53;;;;;;;;;;8297689;28;20406;-82
2022/03/20 11:41:14;;;;;;;16.88;9.02;;;;;;;;;;8296728;28;20057;-83
2022/03/20 11:45:20;;;;;;;10.35;5.40;;;;;;;;;;8298164;28;20518;-82
2022/03/20 11:49:26;;;;;;;11.02;6.05;;;;;;;;;;8298779;28;20065;-82
2022/03/20 11:53:31;;;;;;;11.07;6.13;;;;;;;;;;8298554;28;20070;-83
2022/03/20 11:57:41;;;;;;;9.05;5.22;;;;;;;;;;8298319;28;20511;-81
2022/03/20 12:06:40;;;;;;;12.25;7.50;;;;;;;;;;8520898;27;2041990;-82
2022/03/20 12:10:54;;;;;;;12.00;6.40;;;;;;;;;;8555171;27;20042;-83
2022/03/20 12:14:56;;;;;;;15.75;9.15;;;;;;;;;;8536771;27;20431;-82
2022/03/20 12:19:09;;;;;;;14.80;7.68;;;;;;;;;;8538914;27;20500;-81
2022/03/20 12:23:38;;;;;;;11.73;6.90;;;;;;;;;;8537314;27;20042;-81
2022/03/20 12:27:45;;;;;;;10.57;5.55;;;;;;;;;;8532721;27;20042;-81
2022/03/20 12:31:59;;;;;;;12.07;5.93;;;;;;;;;;8554265;27;20528;-81
2022/03/20 12:36:02;;;;;;;10.98;6.25;;;;;;;;;;8538332;27;20443;-81
2022/03/20 12:40:12;;;;;;;16.25;7.63;;;;;;;;;;8538280;27;20401;-81
2022/03/20 12:44:16;;;;;;;13.02;7.32;;;;;;;;;;8535325;27;20042;-82
2022/03/20 12:48:21;;;;;;;12.10;6.32;;;;;;;;;;8531368;27;20077;-82
2022/03/20 12:52:25;;;;;;;9.90;5.82;;;;;;;;;;8535397;27;20043;-83
2022/03/20 12:56:41;;;;;;;11.95;6.43;;;;;;;;;;8540431;27;20050;-82
2022/03/20 13:06:00;;;;;;;12.02;6.70;;;;;;;;;;8555863;27;20065;-81
2022/03/20 13:10:16;;;;;;;11.07;5.57;;;;;;;;;;8517701;27;20046;-83
2022/03/20 13:14:55;;;;;;;12.60;7.32;;;;;;;;;;8526702;27;20039;-82
2022/03/20 13:19:16;;;;;;;15.00;6.63;;;;;;;;;;8523456;27;20160;-83
2022/03/20 13:23:27;;;;;;;12.07;6.60;;;;;;;;;;8514706;27;20458;-82
2022/03/20 13:27:47;;;;;;;9.88;6.00;;;;;;;;;;8511097;27;20042;-83
2022/03/20 13:32:09;;;;;;;11.70;6.30;;;;;;;;;;8529295;27;20035;-82
2022/03/20 13:36:32;;;;;;;11.73;6.18;;;;;;;;;;8504596;27;20039;-82
2022/03/20 13:40:44;;;;;;;9.43;5.30;;;;;;;;;;8528250;27;20049;-81
2022/03/20 13:44:58;;;;;;;10.57;6.80;;;;;;;;;;8512621;27;20096;-82
2022/03/20 13:49:16;;;;;;;12.50;6.50;;;;;;;;;;8521457;27;20039;-83
2022/03/20 13:53:32;;;;;;;11.93;6.22;;;;;;;;;;8506862;27;20119;-82
2022/03/20 13:57:57;;;;;;;9.27;5.40;;;;;;;;;;8511434;27;20046;-83
2022/03/20 14:02:06;;;;;;;11.57;6.57;;;;;;;;;;8525347;27;20035;-82
2022/03/20 14:06:11;;;;;;;11.18;5.97;;;;;;;;;;8507204;27;20494;-80
2022/03/20 14:10:21;;;;;;;12.00;6.43;;;;;;;;;;8506179;27;20051;-81
2022/03/20 14:14:42;;;;;;;12.93;7.15;;;;;;;;;;8511843;27;20038;-83
2022/03/20 14:19:00;;;;;;;13.52;6.78;;;;;;;;;;8503162;27;20047;-82
2022/03/20 14:23:09;;;;;;;12.30;5.80;;;;;;;;;;8504061;27;20379;-82
2022/03/20 14:27:16;;;;;;;11.60;6.80;;;;;;;;;;8509957;27;20043;-81
2022/03/20 14:40:13;;;;;;;11.45;6.45;;;;;;;;;;8521548;27;20039;-82
2022/03/20 14:44:17;;;;;;;14.27;6.50;;;;;;;;;;8504673;27;20038;-82
2022/03/20 14:48:20;;;;;;;9.70;6.70;;;;;;;;;;8509315;27;20615;-81
2022/03/20 14:52:26;;;;;;;12.55;6.65;;;;;;;;;;8512955;27;20047;-81
2022/03/20 14:56:32;;;;;;;12.13;6.97;;;;;;;;;;8503315;27;20465;-82
2022/03/20 15:00:36;;;;;;;13.90;7.50;;;;;;;;;;8504201;27;20073;-81
2022/03/20 15:04:41;;;;;;;18.65;9.80;;;;;;;;;;8513038;27;20046;-81
2022/03/20 15:13:10;;;;;;;16.00;9.10;;;;;;;;;;8510984;27;20043;-81
2022/03/20 15:17:20;;;;;;;12.82;8.02;;;;;;;;;;8508695;27;20047;-81
2022/03/20 15:21:26;;;;;;;22.17;11.15;;;;;;;;;;8515522;27;20063;-82
2022/03/20 15:25:32;;;;;;;13.50;8.48;;;;;;;;;;8518691;27;20524;-82
2022/03/20 15:29:37;;;;;;;19.25;8.40;;;;;;;;;;8523486;27;20050;-84
2022/03/20 15:33:41;;;;;;;37.80;19.05;;;;;;;;;;8516420;27;20047;-81
2022/03/20 15:37:45;;;;;;;44.47;26.85;;;;;;;;;;8500381;27;20046;-81
2022/03/20 15:41:53;;;;;;;20.85;13.48;;;;;;;;;;8513118;27;20435;-82
2022/03/20 15:46:00;;;;;;;16.70;8.68;;;;;;;;;;8496700;27;20137;-82
2022/03/20 15:50:10;;;;;;;80.20;47.88;;;;;;;;;;8499529;27;20119;-83
2022/03/20 15:54:14;;;;;;;22.58;14.35;;;;;;;;;;8504809;27;20655;-82
2022/03/20 15:58:17;;;;;;;14.68;8.65;;;;;;;;;;8504067;27;20457;-82
2022/03/20 16:02:22;;;;;;;61.38;22.08;;;;;;;;;;8504582;27;20084;-82
2022/03/20 16:06:29;;;;;;;18.92;10.65;;;;;;;;;;8502159;27;20383;-82
2022/03/20 16:10:32;;;;;;;19.90;9.18;;;;;;;;;;8501500;27;20166;-81
2022/03/20 16:14:42;;;;;;;27.75;11.13;;;;;;;;;;8505538;27;20043;-82
2022/03/20 16:18:48;;;;;;;12.02;7.15;;;;;;;;;;8496840;27;20039;-82
2022/03/20 16:31:31;;;;;;;26.35;15.93;;;;;;;;;;8513945;27;20073;-81
2022/03/20 16:35:36;;;;;;;19.45;10.02;;;;;;;;;;8503848;27;20482;-81
2022/03/20 16:39:41;;;;;;;31.33;21.83;;;;;;;;;;8522114;27;20046;-81
2022/03/20 16:43:45;;;;;;;33.72;21.13;;;;;;;;;;8509389;27;20039;-81
2022/03/20 16:47:48;;;;;;;22.05;12.35;;;;;;;;;;8504052;27;20070;-90
2022/03/20 16:51:53;;;;;;;32.85;19.92;;;;;;;;;;8516670;27;20047;-81
2022/03/20 16:55:57;;;;;;;26.42;14.95;;;;;;;;;;8530621;27;20549;-80
2022/03/20 16:59:59;;;;;;;59.33;29.05;;;;;;;;;;8513834;27;20122;-81
2022/03/20 17:04:03;;;;;;;45.08;27.10;;;;;;;;;;8516827;27;20400;-80
2022/03/20 17:08:12;;;;;;;19.35;11.02;;;;;;;;;;8517558;27;20145;-87
2022/03/20 17:12:20;;;;;;;20.08;11.07;;;;;;;;;;8517243;27;20064;-81
2022/03/20 17:16:31;;;;;;;18.58;10.27;;;;;;;;;;8520876;27;20130;-81
2022/03/20 17:20:40;;;;;;;16.77;8.13;;;;;;;;;;8518241;27;20146;-80
2022/03/20 17:24:46;;;;;;;25.35;12.82;;;;;;;;;;8515097;27;20035;-81
2022/03/20 17:28:58;;;;;;;16.40;7.97;;;;;;;;;;8514443;27;20047;-81
2022/03/20 17:33:09;;;;;;;10.48;6.60;;;;;;;;;;8511270;27;20075;-80
2022/03/20 17:37:17;;;;;;;16.65;7.57;;;;;;;;;;8531104;27;20035;-80
2022/03/20 17:41:37;;;;;;;17.88;8.77;;;;;;;;;;8525190;27;20531;-80
2022/03/20 17:45:45;;;;;;;17.20;8.20;;;;;;;;;;8524053;27;20411;-80
2022/03/20 17:49:49;;;;;;;19.17;8.48;;;;;;;;;;8507595;27;20046;-80
2022/03/20 17:53:53;;;;;;;26.63;13.25;;;;;;;;;;8506592;27;20398;-80
2022/03/20 17:57:57;;;;;;;32.55;13.77;;;;;;;;;;8512122;27;20054;-80
2022/03/20 18:10:59;;;;;;;22.90;12.60;;;;;;;;;;8452693;27;20061;-80
2022/03/20 18:15:16;;;;;;;22.60;12.30;;;;;;;;;;8517568;27;20038;-80
2022/03/20 18:19:27;;;;;;;20.25;10.63;;;;;;;;;;8509467;27;20039;-81
2022/03/20 18:23:33;;;;;;;23.00;11.38;;;;;;;;;;8519279;27;20122;-81
2022/03/20 18:27:48;;;;;;;37.78;19.60;;;;;;;;;;8507745;27;20450;-80
2022/03/20 18:32:23;;;;;;;27.98;14.45;;;;;;;;;;8505384;27;20041;-79
2022/03/20 18:36:31;;;;;;;18.95;9.10;;;;;;;;;;8503294;27;20446;-81
2022/03/20 18:40:42;;;;;;;21.17;9.80;;;;;;;;;;8509478;27;20043;-81
2022/03/20 18:44:52;;;;;;;19.42;9.25;;;;;;;;;;8510763;27;20152;-81
2022/03/20 18:49:00;;;;;;;16.45;8.48;;;;;;;;;;8513710;27;20070;-81
2022/03/20 18:53:08;;;;;;;15.18;7.15;;;;;;;;;;8501349;27;20039;-81
2022/03/20 18:57:18;;;;;;;13.75;6.78;;;;;;;;;;8530562;27;20070;-80
2022/03/20 19:01:25;;;;;;;22.70;9.70;;;;;;;;;;8532056;27;20125;-80
2022/03/20 19:05:39;;;;;;;32.38;14.05;;;;;;;;;;8531496;27;20054;-80
2022/03/20 19:09:47;;;;;;;29.70;14.90;;;;;;;;;;8532689;27;20070;-80
2022/03/20 19:13:51;;;;;;;50.00;17.90;;;;;;;;;;8532383;27;20042;-80
2022/03/20 19:17:54;;;;;;;30.88;14.07;;;;;;;;;;8533085;27;20049;-80
2022/03/20 19:22:01;;;;;;;39.80;16.10;;;;;;;;;;8530115;27;20446;-80
2022/03/20 19:26:06;;;;;;;26.48;13.57;;;;;;;;;;8509925;27;20043;-81
2022/03/20 19:30:10;;;;;;;32.78;16.90;;;;;;;;;;8498584;27;20047;-80
2022/03/20 19:42:57;;;;;;;44.40;22.65;;;;;;;;;;8532586;27;20095;-80
2022/03/20 19:47:00;;;;;;;43.08;22.60;;;;;;;;;;8532344;27;20042;-80
2022/03/20 19:51:08;;;;;;;30.80;15.85;;;;;;;;;;8519886;27;20047;-80
2022/03/20 19:55:13;;;;;;;24.70;13.50;;;;;;;;;;8498077;27;20039;-80
2022/03/20 19:59:17;;;;;;;24.90;12.52;;;;;;;;;;8497939;27;20047;-80
2022/03/20 20:03:21;;;;;;;31.75;13.13;;;;;;;;;;8497589;27;20099;-80
2022/03/20 20:07:26;;;;;;;24.58;11.40;;;;;;;;;;8497789;28;20142;-80
2022/03/20 20:11:31;;;;;;;25.60;10.43;;;;;;;;;;8497757;28;20379;-80
2022/03/20 20:15:34;;;;;;;24.63;10.27;;;;;;;;;;8497773;28;20122;-81
2022/03/20 20:19:39;;;;;;;22.02;9.55;;;;;;;;;;8498359;27;20043;-81
2022/03/20 20:23:43;;;;;;;23.20;9.63;;;;;;;;;;8527247;27;20080;-81
2022/03/20 20:27:48;;;;;;;20.80;10.40;;;;;;;;;;8538124;27;20131;-81
2022/03/20 20:31:52;;;;;;;24.13;9.52;;;;;;;;;;8538672;27;20046;-81
2022/03/20 20:35:55;;;;;;;28.27;11.63;;;;;;;;;;8538535;27;20472;-85
2022/03/20 20:39:59;;;;;;;24.70;10.27;;;;;;;;;;8538347;27;20042;-81
2022/03/20 20:44:05;;;;;;;25.42;10.32;;;;;;;;;;8538249;27;20070;-81
2022/03/20 20:48:09;;;;;;;23.90;10.75;;;;;;;;;;8538071;27;20039;-81
2022/03/20 20:52:12;;;;;;;21.27;9.57;;;;;;;;;;8537979;27;20039;-81
2022/03/20 20:56:16;;;;;;;20.80;10.10;;;;;;;;;;8509899;27;20040;-81
2022/03/20 21:00:22;;;;;;;21.05;10.35;;;;;;;;;;8503294;27;20047;-80
2022/03/20 21:04:27;;;;;;;22.63;10.35;;;;;;;;;;8502922;27;20149;-81
2022/03/20 21:12:51;;;;;;;30.30;11.98;;;;;;;;;;8503019;27;20036;-81
2022/03/20 21:16:58;;;;;;;25.08;11.13;;;;;;;;;;8502725;27;20051;-81
2022/03/20 21:21:03;;;;;;;28.65;12.93;;;;;;;;;;8502772;27;20047;-81
2022/03/20 21:25:07;;;;;;;34.88;13.10;;;;;;;;;;8502437;27;20505;-81
2022/03/20 21:29:11;;;;;;;27.60;12.68;;;;;;;;;;8502447;27;20134;-81
2022/03/20 21:33:17;;;;;;;33.72;12.48;;;;;;;;;;8502322;27;20038;-82
2022/03/20 21:37:20;;;;;;;52.80;17.75;;;;;;;;;;8502405;27;20430;-82
2022/03/20 21:41:24;;;;;;;28.95;11.93;;;;;;;;;;8502083;27;20089;-81
2022/03/20 21:45:27;;;;;;;30.42;11.73;;;;;;;;;;8533207;27;20042;-81
2022/03/20 21:49:32;;;;;;;21.35;11.02;;;;;;;;;;8536170;27;20039;-81
2022/03/20 21:53:35;;;;;;;40.50;17.17;;;;;;;;;;8536046;27;20119;-81
2022/03/20 21:57:38;;;;;;;44.10;18.98;;;;;;;;;;8535898;27;20119;-81
2022/03/20 22:01:41;;;;;;;38.05;14.48;;;;;;;;;;8535918;27;20422;-81
2022/03/20 22:05:45;;;;;;;30.77;14.20;;;;;;;;;;8535288;27;20111;-81
2022/03/20 22:09:49;;;;;;;30.35;12.25;;;;;;;;;;8535522;27;20043;-81
2022/03/20 22:13:52;;;;;;;26.88;11.88;;;;;;;;;;8535506;27;20072;-81
2022/03/20 22:17:55;;;;;;;31.58;12.57;;;;;;;;;;8535230;27;20047;-81
2022/03/20 22:21:59;;;;;;;23.52;9.85;;;;;;;;;;8535224;27;20043;-82
2022/03/20 22:26:05;;;;;;;25.98;10.80;;;;;;;;;;8534922;27;20405;-82
2022/03/20 22:30:09;;;;;;;20.45;10.10;;;;;;;;;;8534926;27;20042;-81
2022/03/20 22:34:12;;;;;;;24.98;10.15;;;;;;;;;;8515984;27;20409;-81
2022/03/20 22:38:16;;;;;;;23.15;11.18;;;;;;;;;;8534493;27;20096;-81
2022/03/20 22:42:19;;;;;;;22.25;11.00;;;;;;;;;;8534416;27;20038;-81
2022/03/20 22:46:23;;;;;;;22.88;10.00;;;;;;;;;;8534642;27;20054;-81
2022/03/20 22:50:27;;;;;;;30.50;10.68;;;;;;;;;;8532283;27;20129;-82
2022/03/20 22:54:30;;;;;;;23.30;10.20;;;;;;;;;;8500068;27;20050;-81
2022/03/20 22:58:33;;;;;;;22.23;9.68;;;;;;;;;;8499562;27;20096;-81
2022/03/20 23:02:35;;;;;;;27.48;10.57;;;;;;;;;;8499220;27;20049;-81
2022/03/20 23:06:39;;;;;;;26.58;10.50;;;;;;;;;;8499463;27;20088;-81
2022/03/20 23:10:43;;;;;;;26.38;11.68;;;;;;;;;;8499104;27;20486;-81
2022/03/20 23:14:45;;;;;;;23.15;10.85;;;;;;;;;;8499062;27;20399;-81
2022/03/20 23:18:48;;;;;;;28.23;11.90;;;;;;;;;;8498991;27;20043;-81
2022/03/20 23:22:51;;;;;;;35.00;14.52;;;;;;;;;;8498921;27;20050;-82
2022/03/20 23:26:56;;;;;;;31.00;14.65;;;;;;;;;;8498902;27;20043;-81
2022/03/20 23:30:59;;;;;;;30.15;14.10;;;;;;;;;;8499546;27;20046;-81
2022/03/20 23:35:01;;;;;;;31.98;13.32;;;;;;;;;;8498449;27;20474;-81
2022/03/20 23:39:05;;;;;;;32.85;15.45;;;;;;;;;;8498301;27;20047;-81
2022/03/20 23:43:15;;;;;;;31.17;11.88;;;;;;;;;;8498267;27;20043;-81
2022/03/20 23:47:18;;;;;;;30.95;11.93;;;;;;;;;;8498571;27;20553;-81
2022/03/20 23:51:21;;;;;;;25.60;11.43;;;;;;;;;;8498143;27;20039;-81
2022/03/20 23:55:26;;;;;;;26.48;11.93;;;;;;;;;;8498080;27;20039;-81
2022/03/20 23:59:30;;;;;;;27.83;11.82;;;;;;;;;;8498106;27;20115;-81
